createdAt,value
2018-05-14T00:00:01.861Z,0.00
2018-05-14T00:01:01.801Z,0.00
2018-05-14T00:02:01.742Z,0.00
2018-05-14T00:03:01.675Z,0.00
2018-05-14T00:04:01.614Z,0.00
2018-05-14T00:05:01.552Z,0.00
2018-05-14T00:06:01.491Z,0.00
2018-05-14T00:07:01.427Z,0.00
2018-05-14T00:08:01.365Z,0.00
2018-05-14T00:09:01.304Z,0.00
2018-05-14T00:10:01.240Z,0.00
2018-05-14T00:11:01.186Z,0.00
2018-05-14T00:12:01.119Z,0.00
2018-05-14T00:13:01.055Z,0.00
2018-05-14T00:14:00.992Z,0.00
2018-05-14T00:15:00.931Z,0.00
2018-05-14T00:16:00.869Z,0.00
2018-05-14T00:17:00.806Z,0.00
2018-05-14T00:18:00.744Z,0.00
2018-05-14T00:19:00.691Z,0.00
2018-05-14T00:20:00.621Z,0.00
2018-05-14T00:21:00.558Z,0.00
2018-05-14T00:22:00.495Z,0.00
2018-05-14T00:23:00.433Z,0.00
2018-05-14T00:24:00.371Z,0.00
2018-05-14T00:25:00.308Z,0.00
2018-05-14T00:26:00.247Z,0.00
2018-05-14T00:27:00.186Z,0.00
2018-05-14T00:28:00.124Z,0.00
2018-05-14T00:29:00.061Z,0.00
2018-05-14T00:29:59.997Z,0.00
2018-05-14T00:30:59.937Z,0.00
2018-05-14T00:31:59.880Z,0.00
2018-05-14T00:32:59.817Z,0.00
2018-05-14T00:33:59.751Z,0.00
2018-05-14T00:34:59.690Z,0.00
2018-05-14T00:35:59.627Z,0.00
2018-05-14T00:36:59.568Z,0.00
2018-05-14T00:37:59.504Z,0.00
2018-05-14T00:38:59.440Z,0.00
2018-05-14T00:39:59.379Z,0.00
2018-05-14T00:40:59.316Z,0.00
2018-05-14T00:41:59.253Z,0.00
2018-05-14T00:42:59.194Z,0.00
2018-05-14T00:43:59.129Z,0.00
2018-05-14T00:44:59.067Z,0.00
2018-05-14T00:45:59.005Z,0.00
2018-05-14T00:46:58.943Z,0.00
2018-05-14T00:47:58.880Z,0.00
2018-05-14T00:48:58.819Z,0.00
2018-05-14T00:49:58.756Z,0.00
2018-05-14T00:50:58.694Z,0.00
2018-05-14T00:51:58.631Z,0.00
2018-05-14T00:52:58.569Z,0.00
2018-05-14T00:53:58.505Z,0.00
2018-05-14T00:54:58.444Z,0.00
2018-05-14T00:55:58.383Z,0.00
2018-05-14T00:56:58.320Z,0.00
2018-05-14T00:57:58.258Z,0.00
2018-05-14T00:58:58.197Z,0.00
2018-05-14T00:59:58.134Z,0.00
2018-05-14T01:00:58.071Z,0.00
2018-05-14T01:01:58.010Z,0.00
2018-05-14T01:02:57.948Z,0.00
2018-05-14T01:03:57.886Z,0.00
2018-05-14T01:04:57.823Z,0.00
2018-05-14T01:05:57.764Z,0.00
2018-05-14T01:06:57.698Z,0.00
2018-05-14T01:07:57.636Z,0.00
2018-05-14T01:08:57.573Z,0.00
2018-05-14T01:09:57.511Z,0.00
2018-05-14T01:10:57.449Z,0.00
2018-05-14T01:11:57.388Z,0.00
2018-05-14T01:12:57.326Z,0.00
2018-05-14T01:13:57.263Z,0.00
2018-05-14T01:14:57.200Z,0.00
2018-05-14T01:15:57.149Z,0.00
2018-05-14T01:16:57.076Z,0.00
2018-05-14T01:17:57.604Z,0.00
2018-05-14T01:18:56.958Z,0.00
2018-05-14T01:19:56.889Z,0.00
2018-05-14T01:20:56.905Z,0.00
2018-05-14T01:21:56.766Z,0.00
2018-05-14T01:22:56.704Z,0.00
2018-05-14T01:23:56.644Z,0.00
2018-05-14T01:24:56.578Z,0.00
2018-05-14T01:25:56.515Z,0.00
2018-05-14T01:26:56.462Z,0.00
2018-05-14T01:27:56.393Z,0.00
2018-05-14T01:28:56.329Z,0.00
2018-05-14T01:29:56.267Z,0.00
2018-05-14T01:30:56.206Z,0.00
2018-05-14T01:31:56.145Z,0.00
2018-05-14T01:32:56.080Z,0.00
2018-05-14T01:33:56.019Z,0.00
2018-05-14T01:34:55.958Z,0.00
2018-05-14T01:35:55.894Z,0.00
2018-05-14T01:36:55.832Z,0.00
2018-05-14T01:37:55.771Z,0.00
2018-05-14T01:38:55.711Z,0.00
2018-05-14T01:39:55.645Z,0.00
2018-05-14T01:40:55.584Z,0.00
2018-05-14T01:41:55.527Z,0.00
2018-05-14T01:42:55.465Z,0.00
2018-05-14T01:43:55.399Z,0.00
2018-05-14T01:44:55.336Z,0.00
2018-05-14T01:45:55.276Z,0.00
2018-05-14T01:46:55.213Z,0.00
2018-05-14T01:47:55.151Z,0.00
2018-05-14T01:48:55.092Z,0.00
2018-05-14T01:49:55.027Z,0.00
2018-05-14T01:50:54.965Z,0.00
2018-05-14T01:51:54.903Z,0.00
2018-05-14T01:52:54.841Z,0.00
2018-05-14T01:53:54.779Z,0.00
2018-05-14T01:54:54.716Z,0.00
2018-05-14T01:55:54.654Z,0.00
2018-05-14T01:56:54.594Z,0.00
2018-05-14T01:57:54.533Z,0.00
2018-05-14T01:58:54.469Z,0.00
2018-05-14T01:59:54.408Z,0.00
2018-05-14T02:00:54.348Z,0.00
2018-05-14T02:01:54.284Z,0.00
2018-05-14T02:02:54.223Z,0.00
2018-05-14T02:03:54.160Z,0.00
2018-05-14T02:04:54.097Z,0.00
2018-05-14T02:05:54.036Z,0.00
2018-05-14T02:06:54.031Z,0.00
2018-05-14T02:07:53.917Z,0.00
2018-05-14T02:08:53.849Z,0.00
2018-05-14T02:09:53.787Z,0.00
2018-05-14T02:10:53.727Z,0.00
2018-05-14T02:11:53.666Z,0.00
2018-05-14T02:12:53.604Z,0.00
2018-05-14T02:13:53.542Z,0.00
2018-05-14T02:14:53.481Z,0.00
2018-05-14T02:15:53.418Z,0.00
2018-05-14T02:16:53.355Z,0.00
2018-05-14T02:17:53.294Z,0.00
2018-05-14T02:18:53.233Z,0.00
2018-05-14T02:19:53.171Z,0.00
2018-05-14T02:20:53.110Z,0.00
2018-05-14T02:21:53.046Z,0.00
2018-05-14T02:22:52.985Z,0.00
2018-05-14T02:23:52.924Z,0.00
2018-05-14T02:24:52.862Z,0.00
2018-05-14T02:25:52.799Z,0.00
2018-05-14T02:26:52.738Z,0.00
2018-05-14T02:27:52.749Z,0.00
2018-05-14T02:28:52.615Z,0.00
2018-05-14T02:29:52.553Z,0.00
2018-05-14T02:30:52.491Z,0.00
2018-05-14T02:31:52.443Z,0.00
2018-05-14T02:32:52.370Z,0.00
2018-05-14T02:33:52.307Z,0.00
2018-05-14T02:34:52.256Z,0.00
2018-05-14T02:35:52.223Z,0.00
2018-05-14T02:36:52.139Z,0.00
2018-05-14T02:37:52.066Z,0.00
2018-05-14T02:38:52.001Z,0.00
2018-05-14T02:39:51.936Z,0.00
2018-05-14T02:40:51.873Z,0.00
2018-05-14T02:41:51.811Z,0.00
2018-05-14T02:42:51.748Z,0.00
2018-05-14T02:43:51.689Z,0.00
2018-05-14T02:44:51.626Z,0.00
2018-05-14T02:45:51.565Z,0.00
2018-05-14T02:46:51.505Z,0.00
2018-05-14T02:47:51.441Z,0.00
2018-05-14T02:48:51.378Z,0.00
2018-05-14T02:49:51.317Z,0.00
2018-05-14T02:50:51.256Z,0.00
2018-05-14T02:51:51.194Z,0.00
2018-05-14T02:52:51.134Z,0.00
2018-05-14T02:53:51.071Z,0.00
2018-05-14T02:54:51.009Z,0.00
2018-05-14T02:55:50.950Z,0.00
2018-05-14T02:56:50.890Z,0.00
2018-05-14T02:57:50.824Z,0.00
2018-05-14T02:58:50.792Z,0.00
2018-05-14T02:59:50.701Z,0.00
2018-05-14T03:00:50.637Z,0.00
2018-05-14T03:01:50.577Z,0.00
2018-05-14T03:02:50.517Z,0.00
2018-05-14T03:03:50.454Z,0.00
2018-05-14T03:04:50.404Z,0.00
2018-05-14T03:05:50.332Z,0.00
2018-05-14T03:06:50.267Z,0.00
2018-05-14T03:07:50.209Z,0.00
2018-05-14T03:08:50.144Z,0.00
2018-05-14T03:09:50.083Z,0.00
2018-05-14T03:10:50.023Z,0.00
2018-05-14T03:11:49.960Z,0.00
2018-05-14T03:12:49.899Z,0.00
2018-05-14T03:13:49.835Z,0.00
2018-05-14T03:14:49.778Z,0.00
2018-05-14T03:15:49.716Z,0.00
2018-05-14T03:16:49.651Z,0.00
2018-05-14T03:17:49.588Z,0.00
2018-05-14T03:18:49.530Z,0.00
2018-05-14T03:19:49.467Z,0.00
2018-05-14T03:20:49.403Z,0.00
2018-05-14T03:21:49.341Z,0.00
2018-05-14T03:22:49.280Z,0.00
2018-05-14T03:23:49.219Z,4.00
2018-05-14T03:24:49.155Z,4.00
2018-05-14T03:25:49.095Z,0.00
2018-05-14T03:26:49.033Z,0.00
2018-05-14T03:27:48.970Z,4.00
2018-05-14T03:28:48.909Z,4.00
2018-05-14T03:29:48.848Z,4.00
2018-05-14T03:30:48.785Z,4.00
2018-05-14T03:31:48.724Z,8.00
2018-05-14T03:32:48.664Z,4.00
2018-05-14T03:33:48.602Z,4.00
2018-05-14T03:34:48.539Z,8.00
2018-05-14T03:35:48.477Z,8.00
2018-05-14T03:36:48.415Z,12.00
2018-05-14T03:37:48.356Z,12.00
2018-05-14T03:38:48.293Z,12.00
2018-05-14T03:39:48.232Z,12.00
2018-05-14T03:40:48.168Z,16.00
2018-05-14T03:41:48.106Z,16.00
2018-05-14T03:42:48.043Z,16.00
2018-05-14T03:43:47.983Z,16.00
2018-05-14T03:44:47.918Z,20.00
2018-05-14T03:45:47.859Z,24.00
2018-05-14T03:46:47.799Z,24.00
2018-05-14T03:47:47.735Z,28.00
2018-05-14T03:48:47.676Z,24.00
2018-05-14T03:49:47.613Z,28.00
2018-05-14T03:50:47.552Z,28.00
2018-05-14T03:51:47.490Z,28.00
2018-05-14T03:52:47.432Z,32.00
2018-05-14T03:53:47.364Z,32.00
2018-05-14T03:54:47.305Z,32.00
2018-05-14T03:55:47.249Z,36.00
2018-05-14T03:56:47.185Z,40.00
2018-05-14T03:57:47.119Z,40.00
2018-05-14T03:58:47.063Z,44.00
2018-05-14T03:59:46.996Z,48.00
2018-05-14T04:00:46.944Z,48.00
2018-05-14T04:01:46.872Z,48.00
2018-05-14T04:02:46.810Z,48.00
2018-05-14T04:03:46.750Z,56.00
2018-05-14T04:04:46.685Z,56.00
2018-05-14T04:05:46.627Z,60.00
2018-05-14T04:06:46.562Z,68.00
2018-05-14T04:07:46.502Z,72.00
2018-05-14T04:08:46.439Z,76.00
2018-05-14T04:09:46.378Z,80.00
2018-05-14T04:10:46.316Z,84.00
2018-05-14T04:11:46.253Z,88.00
2018-05-14T04:12:46.192Z,92.00
2018-05-14T04:13:46.131Z,92.00
2018-05-14T04:14:46.069Z,96.00
2018-05-14T04:15:46.007Z,96.00
2018-05-14T04:16:45.946Z,96.00
2018-05-14T04:17:45.884Z,108.00
2018-05-14T04:18:45.822Z,108.00
2018-05-14T04:19:45.758Z,116.00
2018-05-14T04:20:45.698Z,124.00
2018-05-14T04:21:45.635Z,120.00
2018-05-14T04:22:45.574Z,116.00
2018-05-14T04:23:45.513Z,112.00
2018-05-14T04:24:45.454Z,112.00
2018-05-14T04:25:45.388Z,112.00
2018-05-14T04:26:45.325Z,108.00
2018-05-14T04:27:45.268Z,112.00
2018-05-14T04:28:45.203Z,116.00
2018-05-14T04:29:45.142Z,132.00
2018-05-14T04:30:45.079Z,148.00
2018-05-14T04:31:45.019Z,176.00
2018-05-14T04:32:44.955Z,188.00
2018-05-14T04:33:44.891Z,188.00
2018-05-14T04:34:44.835Z,200.00
2018-05-14T04:35:44.772Z,196.00
2018-05-14T04:36:44.753Z,188.00
2018-05-14T04:37:44.648Z,196.00
2018-05-14T04:38:44.587Z,208.00
2018-05-14T04:39:44.525Z,220.00
2018-05-14T04:40:44.465Z,240.00
2018-05-14T04:41:44.403Z,252.00
2018-05-14T04:42:44.338Z,264.00
2018-05-14T04:43:44.277Z,264.00
2018-05-14T04:44:44.215Z,260.00
2018-05-14T04:45:44.154Z,260.00
2018-05-14T04:46:44.093Z,264.00
2018-05-14T04:47:44.031Z,264.00
2018-05-14T04:48:43.978Z,260.00
2018-05-14T04:49:43.906Z,256.00
2018-05-14T04:50:43.844Z,248.00
2018-05-14T04:51:43.790Z,248.00
2018-05-14T04:52:43.722Z,276.00
2018-05-14T04:53:43.659Z,300.00
2018-05-14T04:54:43.599Z,288.00
2018-05-14T04:55:43.538Z,292.00
2018-05-14T04:56:43.474Z,296.00
2018-05-14T04:57:43.417Z,296.00
2018-05-14T04:58:43.354Z,288.00
2018-05-14T04:59:43.296Z,264.00
2018-05-14T05:00:43.228Z,244.00
2018-05-14T05:01:43.168Z,244.00
2018-05-14T05:02:43.107Z,240.00
2018-05-14T05:03:43.056Z,256.00
2018-05-14T05:04:42.981Z,248.00
2018-05-14T05:05:42.920Z,260.00
2018-05-14T05:06:42.858Z,292.00
2018-05-14T05:07:42.801Z,304.00
2018-05-14T05:08:42.736Z,296.00
2018-05-14T05:09:42.690Z,284.00
2018-05-14T05:10:42.616Z,304.00
2018-05-14T05:11:42.551Z,320.00
2018-05-14T05:12:42.491Z,332.00
2018-05-14T05:13:42.430Z,340.00
2018-05-14T05:14:42.368Z,356.00
2018-05-14T05:15:42.306Z,340.00
2018-05-14T05:16:42.244Z,340.00
2018-05-14T05:17:42.183Z,332.00
2018-05-14T05:18:42.120Z,308.00
2018-05-14T05:19:42.059Z,324.00
2018-05-14T05:20:41.997Z,368.00
2018-05-14T05:21:41.939Z,376.00
2018-05-14T05:22:41.882Z,364.00
2018-05-14T05:23:41.812Z,368.00
2018-05-14T05:24:41.752Z,376.00
2018-05-14T05:25:41.690Z,404.00
2018-05-14T05:26:41.629Z,416.00
2018-05-14T05:27:41.569Z,416.00
2018-05-14T05:28:41.508Z,412.00
2018-05-14T05:29:41.444Z,380.00
2018-05-14T05:30:41.384Z,368.00
2018-05-14T05:31:41.326Z,348.00
2018-05-14T05:32:41.259Z,348.00
2018-05-14T05:33:41.198Z,344.00
2018-05-14T05:34:41.137Z,352.00
2018-05-14T05:35:41.076Z,360.00
2018-05-14T05:36:41.014Z,392.00
2018-05-14T05:37:40.955Z,400.00
2018-05-14T05:38:40.891Z,452.00
2018-05-14T05:39:40.831Z,520.00
2018-05-14T05:40:40.767Z,528.00
2018-05-14T05:41:40.708Z,528.00
2018-05-14T05:42:40.647Z,532.00
2018-05-14T05:43:40.587Z,524.00
2018-05-14T05:44:40.523Z,516.00
2018-05-14T05:45:40.461Z,504.00
2018-05-14T05:46:40.401Z,496.00
2018-05-14T05:47:40.338Z,492.00
2018-05-14T05:48:40.276Z,488.00
2018-05-14T05:49:40.215Z,476.00
2018-05-14T05:50:40.153Z,500.00
2018-05-14T05:51:40.095Z,488.00
2018-05-14T05:52:40.034Z,516.00
2018-05-14T05:53:39.973Z,548.00
2018-05-14T05:54:39.910Z,580.00
2018-05-14T05:55:39.846Z,584.00
2018-05-14T05:56:39.788Z,568.00
2018-05-14T05:57:39.724Z,600.00
2018-05-14T05:58:39.662Z,596.00
2018-05-14T05:59:39.601Z,588.00
2018-05-14T06:00:39.539Z,572.00
2018-05-14T06:01:39.475Z,532.00
2018-05-14T06:02:39.424Z,520.00
2018-05-14T06:03:39.357Z,500.00
2018-05-14T06:04:39.295Z,496.00
2018-05-14T06:05:39.232Z,480.00
2018-05-14T06:06:39.173Z,472.00
2018-05-14T06:07:39.109Z,496.00
2018-05-14T06:08:39.048Z,516.00
2018-05-14T06:09:38.990Z,544.00
2018-05-14T06:10:38.926Z,564.00
2018-05-14T06:11:38.864Z,596.00
2018-05-14T06:12:38.803Z,656.00
2018-05-14T06:13:38.739Z,724.00
2018-05-14T06:14:38.679Z,784.00
2018-05-14T06:15:38.622Z,868.00
2018-05-14T06:16:38.557Z,968.00
2018-05-14T06:17:38.496Z,916.00
2018-05-14T06:18:38.436Z,912.00
2018-05-14T06:19:38.374Z,988.00
2018-05-14T06:20:38.311Z,1020.00
2018-05-14T06:21:38.252Z,1040.00
2018-05-14T06:22:38.190Z,1084.00
2018-05-14T06:23:38.126Z,1084.00
2018-05-14T06:24:38.067Z,1060.00
2018-05-14T06:25:38.006Z,1000.00
2018-05-14T06:26:37.945Z,924.00
2018-05-14T06:27:37.883Z,924.00
2018-05-14T06:28:37.822Z,916.00
2018-05-14T06:29:37.761Z,896.00
2018-05-14T06:30:37.699Z,868.00
2018-05-14T06:31:37.638Z,852.00
2018-05-14T06:32:37.575Z,836.00
2018-05-14T06:33:37.515Z,828.00
2018-05-14T06:34:37.459Z,852.00
2018-05-14T06:35:37.440Z,864.00
2018-05-14T06:36:37.332Z,892.00
2018-05-14T06:37:37.271Z,876.00
2018-05-14T06:38:37.211Z,876.00
2018-05-14T06:39:37.149Z,856.00
2018-05-14T06:40:37.091Z,836.00
2018-05-14T06:41:37.031Z,828.00
2018-05-14T06:42:36.965Z,804.00
2018-05-14T06:43:36.905Z,812.00
2018-05-14T06:44:36.844Z,840.00
2018-05-14T06:45:36.784Z,900.00
2018-05-14T06:46:36.724Z,908.00
2018-05-14T06:47:36.661Z,892.00
2018-05-14T06:48:36.598Z,880.00
2018-05-14T06:49:36.538Z,880.00
2018-05-14T06:50:36.477Z,868.00
2018-05-14T06:51:36.418Z,872.00
2018-05-14T06:52:36.354Z,872.00
2018-05-14T06:53:36.295Z,860.00
2018-05-14T06:54:36.231Z,892.00
2018-05-14T06:55:36.170Z,936.00
2018-05-14T06:56:36.107Z,944.00
2018-05-14T06:57:36.051Z,936.00
2018-05-14T06:58:36.113Z,928.00
2018-05-14T06:59:35.927Z,956.00
2018-05-14T07:00:35.867Z,992.00
2018-05-14T07:01:36.027Z,1008.00
2018-05-14T07:02:35.746Z,1024.00
2018-05-14T07:03:35.682Z,1004.00
2018-05-14T07:04:35.621Z,992.00
2018-05-14T07:05:35.562Z,984.00
2018-05-14T07:06:35.498Z,976.00
2018-05-14T07:07:35.438Z,984.00
2018-05-14T07:08:35.377Z,964.00
2018-05-14T07:09:35.316Z,984.00
2018-05-14T07:10:35.259Z,1012.00
2018-05-14T07:11:35.201Z,984.00
2018-05-14T07:12:35.132Z,992.00
2018-05-14T07:13:35.073Z,992.00
2018-05-14T07:14:35.012Z,992.00
2018-05-14T07:15:34.949Z,988.00
2018-05-14T07:16:34.889Z,996.00
2018-05-14T07:17:34.826Z,952.00
2018-05-14T07:18:34.764Z,896.00
2018-05-14T07:19:34.710Z,876.00
2018-05-14T07:20:34.644Z,884.00
2018-05-14T07:21:34.582Z,896.00
2018-05-14T07:22:34.524Z,936.00
2018-05-14T07:23:34.460Z,960.00
2018-05-14T07:24:34.399Z,988.00
2018-05-14T07:25:34.344Z,1028.00
2018-05-14T07:26:34.281Z,1036.00
2018-05-14T07:27:34.217Z,1064.00
2018-05-14T07:28:34.157Z,1040.00
2018-05-14T07:29:34.094Z,1032.00
2018-05-14T07:30:34.033Z,1000.00
2018-05-14T07:31:33.972Z,1000.00
2018-05-14T07:32:33.910Z,1000.00
2018-05-14T07:33:33.852Z,1052.00
2018-05-14T07:34:33.789Z,1124.00
2018-05-14T07:35:33.727Z,1236.00
2018-05-14T07:36:33.668Z,1344.00
2018-05-14T07:37:33.607Z,1412.00
2018-05-14T07:38:33.546Z,1416.00
2018-05-14T07:39:33.485Z,1380.00
2018-05-14T07:40:33.483Z,1364.00
2018-05-14T07:41:33.362Z,1384.00
2018-05-14T07:42:33.304Z,1424.00
2018-05-14T07:43:33.240Z,1492.00
2018-05-14T07:44:33.182Z,1504.00
2018-05-14T07:45:33.120Z,1452.00
2018-05-14T07:46:33.057Z,1384.00
2018-05-14T07:47:33.000Z,1344.00
2018-05-14T07:48:32.936Z,1276.00
2018-05-14T07:49:32.874Z,1236.00
2018-05-14T07:50:32.823Z,1212.00
2018-05-14T07:51:32.753Z,1212.00
2018-05-14T07:52:32.692Z,1240.00
2018-05-14T07:53:32.631Z,1324.00
2018-05-14T07:54:32.620Z,1384.00
2018-05-14T07:55:32.512Z,1388.00
2018-05-14T07:56:32.449Z,1400.00
2018-05-14T07:57:32.388Z,1416.00
2018-05-14T07:58:32.329Z,1452.00
2018-05-14T07:59:32.267Z,1544.00
2018-05-14T08:00:32.206Z,1636.00
2018-05-14T08:01:32.143Z,1652.00
2018-05-14T08:02:32.083Z,1832.00
2018-05-14T08:03:32.024Z,2036.00
2018-05-14T08:04:31.966Z,2000.00
2018-05-14T08:05:31.947Z,2016.00
2018-05-14T08:06:31.841Z,2116.00
2018-05-14T08:07:31.790Z,2268.00
2018-05-14T08:08:31.721Z,2508.00
2018-05-14T08:09:31.659Z,2488.00
2018-05-14T08:10:31.599Z,2504.00
2018-05-14T08:11:31.537Z,2416.00
2018-05-14T08:12:31.475Z,2452.00
2018-05-14T08:13:31.416Z,2272.00
2018-05-14T08:14:31.356Z,2096.00
2018-05-14T08:15:31.296Z,1980.00
2018-05-14T08:16:31.234Z,1956.00
2018-05-14T08:17:31.187Z,1780.00
2018-05-14T08:18:31.115Z,1676.00
2018-05-14T08:19:31.055Z,1492.00
2018-05-14T08:20:30.994Z,1436.00
2018-05-14T08:21:30.934Z,1400.00
2018-05-14T08:22:30.872Z,1336.00
2018-05-14T08:23:30.880Z,1272.00
2018-05-14T08:24:30.752Z,1228.00
2018-05-14T08:25:30.694Z,1240.00
2018-05-14T08:26:30.641Z,1256.00
2018-05-14T08:27:30.572Z,1388.00
2018-05-14T08:28:30.510Z,1376.00
2018-05-14T08:29:30.451Z,1220.00
2018-05-14T08:30:30.391Z,1188.00
2018-05-14T08:31:30.498Z,1216.00
2018-05-14T08:32:30.270Z,1248.00
2018-05-14T08:33:30.210Z,1160.00
2018-05-14T08:34:30.149Z,1164.00
2018-05-14T08:35:30.091Z,1240.00
2018-05-14T08:36:30.028Z,1340.00
2018-05-14T08:37:29.969Z,1420.00
2018-05-14T08:38:29.906Z,1384.00
2018-05-14T08:39:29.849Z,1304.00
2018-05-14T08:40:29.791Z,1180.00
2018-05-14T08:41:29.728Z,1128.00
2018-05-14T08:42:29.751Z,1100.00
2018-05-14T08:43:29.607Z,1092.00
2018-05-14T08:44:29.547Z,1008.00
2018-05-14T08:45:29.489Z,952.00
2018-05-14T08:46:29.422Z,900.00
2018-05-14T08:47:29.366Z,876.00
2018-05-14T08:48:29.305Z,864.00
2018-05-14T08:49:29.243Z,864.00
2018-05-14T08:50:29.216Z,860.00
2018-05-14T08:51:29.123Z,872.00
2018-05-14T08:52:29.071Z,908.00
2018-05-14T08:53:29.003Z,956.00
2018-05-14T08:54:29.127Z,1004.00
2018-05-14T08:55:28.882Z,1048.00
2018-05-14T08:56:28.820Z,1088.00
2018-05-14T08:57:28.761Z,1132.00
2018-05-14T08:58:28.700Z,1196.00
2018-05-14T08:59:28.640Z,1248.00
2018-05-14T09:00:28.579Z,1264.00
2018-05-14T09:01:28.519Z,1240.00
2018-05-14T09:02:28.460Z,1128.00
2018-05-14T09:03:28.404Z,1068.00
2018-05-14T09:04:28.341Z,1092.00
2018-05-14T09:05:28.278Z,1164.00
2018-05-14T09:06:28.223Z,1244.00
2018-05-14T09:07:28.157Z,1308.00
2018-05-14T09:08:28.093Z,1388.00
2018-05-14T09:09:28.039Z,1404.00
2018-05-14T09:10:27.976Z,1364.00
2018-05-14T09:11:27.916Z,1304.00
2018-05-14T09:12:27.856Z,1288.00
2018-05-14T09:13:27.794Z,1268.00
2018-05-14T09:14:27.738Z,1224.00
2018-05-14T09:15:27.675Z,1192.00
2018-05-14T09:16:27.615Z,1156.00
2018-05-14T09:17:27.554Z,1128.00
2018-05-14T09:18:27.492Z,1124.00
2018-05-14T09:19:27.503Z,1088.00
2018-05-14T09:20:27.372Z,1100.00
2018-05-14T09:21:27.311Z,1136.00
2018-05-14T09:22:27.254Z,1216.00
2018-05-14T09:23:27.192Z,1344.00
2018-05-14T09:24:27.129Z,1444.00
2018-05-14T09:25:27.169Z,1448.00
2018-05-14T09:26:27.012Z,1424.00
2018-05-14T09:27:26.952Z,1408.00
2018-05-14T09:28:26.890Z,1368.00
2018-05-14T09:29:26.830Z,1312.00
2018-05-14T09:30:26.832Z,1256.00
2018-05-14T09:31:26.710Z,1212.00
2018-05-14T09:32:26.649Z,1184.00
2018-05-14T09:33:26.592Z,1164.00
2018-05-14T09:34:26.532Z,1180.00
2018-05-14T09:35:26.468Z,1232.00
2018-05-14T09:36:26.408Z,1288.00
2018-05-14T09:37:26.351Z,1268.00
2018-05-14T09:38:26.289Z,1196.00
2018-05-14T09:39:26.228Z,1132.00
2018-05-14T09:40:26.167Z,1116.00
2018-05-14T09:41:26.107Z,1176.00
2018-05-14T09:42:26.046Z,1244.00
2018-05-14T09:43:25.986Z,1396.00
2018-05-14T09:44:25.962Z,1668.00
2018-05-14T09:45:25.866Z,1900.00
2018-05-14T09:46:25.806Z,1960.00
2018-05-14T09:47:25.747Z,1956.00
2018-05-14T09:48:25.685Z,1988.00
2018-05-14T09:49:25.627Z,2012.00
2018-05-14T09:50:25.620Z,2056.00
2018-05-14T09:51:25.507Z,2144.00
2018-05-14T09:52:25.443Z,2260.00
2018-05-14T09:53:25.385Z,2408.00
2018-05-14T09:54:25.325Z,2496.00
2018-05-14T09:55:25.438Z,2476.00
2018-05-14T09:56:25.203Z,2428.00
2018-05-14T09:57:25.179Z,2384.00
2018-05-14T09:58:25.099Z,2356.00
2018-05-14T09:59:25.026Z,2308.00
2018-05-14T10:00:24.964Z,2260.00
2018-05-14T10:01:24.905Z,2184.00
2018-05-14T10:02:24.846Z,2124.00
2018-05-14T10:03:24.787Z,2124.00
2018-05-14T10:04:24.725Z,2108.00
2018-05-14T10:05:24.665Z,2012.00
2018-05-14T10:06:24.609Z,1940.00
2018-05-14T10:07:24.545Z,1872.00
2018-05-14T10:08:24.485Z,1844.00
2018-05-14T10:09:24.425Z,1796.00
2018-05-14T10:10:24.367Z,1704.00
2018-05-14T10:11:24.308Z,1648.00
2018-05-14T10:12:24.246Z,1688.00
2018-05-14T10:13:24.189Z,1792.00
2018-05-14T10:14:24.130Z,1896.00
2018-05-14T10:15:24.069Z,1956.00
2018-05-14T10:16:24.008Z,1956.00
2018-05-14T10:17:23.949Z,1992.00
2018-05-14T10:18:23.890Z,2008.00
2018-05-14T10:19:23.831Z,2012.00
2018-05-14T10:20:23.772Z,1972.00
2018-05-14T10:21:23.714Z,1988.00
2018-05-14T10:22:23.655Z,2028.00
2018-05-14T10:23:23.594Z,2020.00
2018-05-14T10:24:23.532Z,1996.00
2018-05-14T10:25:23.473Z,2060.00
2018-05-14T10:26:23.415Z,2148.00
2018-05-14T10:27:23.400Z,2252.00
2018-05-14T10:28:23.294Z,2216.00
2018-05-14T10:29:23.240Z,2104.00
2018-05-14T10:30:23.177Z,1972.00
2018-05-14T10:31:23.116Z,1848.00
2018-05-14T10:32:23.059Z,1740.00
2018-05-14T10:33:23.004Z,1640.00
2018-05-14T10:34:22.938Z,1580.00
2018-05-14T10:35:22.880Z,1576.00
2018-05-14T10:36:22.822Z,1556.00
2018-05-14T10:37:22.769Z,1488.00
2018-05-14T10:38:22.701Z,1396.00
2018-05-14T10:39:22.642Z,1292.00
2018-05-14T10:40:22.581Z,1208.00
2018-05-14T10:41:22.523Z,1112.00
2018-05-14T10:42:22.465Z,1040.00
2018-05-14T10:43:22.405Z,1012.00
2018-05-14T10:44:22.343Z,952.00
2018-05-14T10:45:22.289Z,892.00
2018-05-14T10:46:22.227Z,844.00
2018-05-14T10:47:22.167Z,828.00
2018-05-14T10:48:22.108Z,840.00
2018-05-14T10:49:22.047Z,876.00
2018-05-14T10:50:21.990Z,892.00
2018-05-14T10:51:21.928Z,904.00
2018-05-14T10:52:21.869Z,928.00
2018-05-14T10:53:21.810Z,948.00
2018-05-14T10:54:21.750Z,964.00
2018-05-14T10:55:21.694Z,960.00
2018-05-14T10:56:21.631Z,1012.00
2018-05-14T10:57:21.572Z,1088.00
2018-05-14T10:58:21.514Z,1144.00
2018-05-14T10:59:21.453Z,1196.00
2018-05-14T11:00:21.391Z,1304.00
2018-05-14T11:01:21.359Z,1408.00
2018-05-14T11:02:21.274Z,1344.00
2018-05-14T11:03:21.214Z,1248.00
2018-05-14T11:04:21.156Z,1144.00
2018-05-14T11:05:21.093Z,1096.00
2018-05-14T11:06:21.035Z,1068.00
2018-05-14T11:07:20.974Z,1084.00
2018-05-14T11:08:20.915Z,1172.00
2018-05-14T11:09:20.855Z,1284.00
2018-05-14T11:10:20.799Z,1404.00
2018-05-14T11:11:20.737Z,1528.00
2018-05-14T11:12:20.677Z,1656.00
2018-05-14T11:13:20.618Z,1876.00
2018-05-14T11:14:20.560Z,2120.00
2018-05-14T11:15:20.498Z,2208.00
2018-05-14T11:16:20.439Z,2360.00
2018-05-14T11:17:20.380Z,2392.00
2018-05-14T11:18:20.328Z,2332.00
2018-05-14T11:19:20.261Z,2412.00
2018-05-14T11:20:20.200Z,2476.00
2018-05-14T11:21:20.143Z,2448.00
2018-05-14T11:22:20.082Z,2484.00
2018-05-14T11:23:20.023Z,2520.00
2018-05-14T11:24:19.963Z,2616.00
2018-05-14T11:25:19.903Z,2884.00
2018-05-14T11:26:19.844Z,3260.00
2018-05-14T11:27:19.786Z,3632.00
2018-05-14T11:28:19.724Z,3792.00
2018-05-14T11:29:19.672Z,3212.00
2018-05-14T11:30:19.605Z,2712.00
2018-05-14T11:31:19.547Z,2476.00
2018-05-14T11:32:19.486Z,2404.00
2018-05-14T11:33:19.426Z,2536.00
2018-05-14T11:34:19.368Z,2864.00
2018-05-14T11:35:19.316Z,2752.00
2018-05-14T11:36:19.252Z,2392.00
2018-05-14T11:37:19.193Z,2048.00
2018-05-14T11:38:19.132Z,1768.00
2018-05-14T11:39:19.075Z,1708.00
2018-05-14T11:40:19.017Z,1832.00
2018-05-14T11:41:18.955Z,2032.00
2018-05-14T11:42:18.892Z,2356.00
2018-05-14T11:43:18.840Z,2640.00
2018-05-14T11:44:18.779Z,2500.00
2018-05-14T11:45:18.721Z,2396.00
2018-05-14T11:46:18.661Z,2360.00
2018-05-14T11:47:18.607Z,2412.00
2018-05-14T11:48:18.542Z,2480.00
2018-05-14T11:49:18.483Z,2552.00
2018-05-14T11:50:18.424Z,2680.00
2018-05-14T11:51:18.368Z,2904.00
2018-05-14T11:52:18.307Z,2980.00
2018-05-14T11:53:18.284Z,3068.00
2018-05-14T11:54:18.192Z,3136.00
2018-05-14T11:55:18.132Z,3240.00
2018-05-14T11:56:18.072Z,3312.00
2018-05-14T11:57:18.013Z,3180.00
2018-05-14T11:58:17.958Z,3428.00
2018-05-14T11:59:17.897Z,2812.00
2018-05-14T12:00:17.840Z,2644.00
2018-05-14T12:01:17.783Z,2572.00
2018-05-14T12:02:17.721Z,2500.00
2018-05-14T12:03:17.664Z,2560.00
2018-05-14T12:04:17.603Z,2384.00
2018-05-14T12:05:17.546Z,2512.00
2018-05-14T12:06:17.487Z,2764.00
2018-05-14T12:07:17.430Z,2968.00
2018-05-14T12:08:17.371Z,3292.00
2018-05-14T12:09:17.314Z,3096.00
2018-05-14T12:10:17.255Z,2920.00
2018-05-14T12:11:17.198Z,2780.00
2018-05-14T12:12:17.165Z,2640.00
2018-05-14T12:13:17.081Z,2584.00
2018-05-14T12:14:17.021Z,2576.00
2018-05-14T12:15:16.965Z,2708.00
2018-05-14T12:16:16.920Z,2752.00
2018-05-14T12:17:16.847Z,2596.00
2018-05-14T12:18:16.789Z,2612.00
2018-05-14T12:19:16.730Z,2648.00
2018-05-14T12:20:16.672Z,2656.00
2018-05-14T12:21:16.615Z,2700.00
2018-05-14T12:22:16.555Z,2852.00
2018-05-14T12:23:16.500Z,2956.00
2018-05-14T12:24:16.441Z,3124.00
2018-05-14T12:25:16.381Z,3188.00
2018-05-14T12:26:16.324Z,3196.00
2018-05-14T12:27:16.267Z,3332.00
2018-05-14T12:28:16.209Z,2872.00
2018-05-14T12:29:16.150Z,2460.00
2018-05-14T12:30:16.093Z,2360.00
2018-05-14T12:31:16.040Z,2116.00
2018-05-14T12:32:15.974Z,2076.00
2018-05-14T12:33:15.918Z,2336.00